sensor_id;sensor_type;location;lat;lon;timestamp;pressure;altitude;pressure_sealevel;temperature;humidity
51781;BME280;37844;57.126;24.288;2022-11-20T00:02:00;101590.28;;;-3.31;100.00
51781;BME280;37844;57.126;24.288;2022-11-20T00:04:25;101588.00;;;-3.28;100.00
51781;BME280;37844;57.126;24.288;2022-11-20T00:06:50;101592.19;;;-3.28;100.00
51781;BME280;37844;57.126;24.288;2022-11-20T00:09:16;101593.44;;;-3.23;100.00
51781;BME280;37844;57.126;24.288;2022-11-20T00:11:41;101584.50;;;-3.20;100.00
51781;BME280;37844;57.126;24.288;2022-11-20T00:14:08;101586.25;;;-3.18;100.00
51781;BME280;37844;57.126;24.288;2022-11-20T00:16:34;101584.00;;;-3.15;100.00
51781;BME280;37844;57.126;24.288;2022-11-20T00:19:00;101576.53;;;-3.14;100.00
51781;BME280;37844;57.126;24.288;2022-11-20T00:21:27;101574.78;;;-3.15;100.00
51781;BME280;37844;57.126;24.288;2022-11-20T00:23:54;101570.47;;;-3.16;100.00
51781;BME280;37844;57.126;24.288;2022-11-20T00:26:21;101571.28;;;-3.27;100.00
51781;BME280;37844;57.126;24.288;2022-11-20T00:28:55;101573.13;;;-3.14;100.00
51781;BME280;37844;57.126;24.288;2022-11-20T00:31:22;101570.75;;;-3.13;100.00
51781;BME280;37844;57.126;24.288;2022-11-20T00:33:48;101570.63;;;-3.14;100.00
51781;BME280;37844;57.126;24.288;2022-11-20T00:36:15;101575.91;;;-3.11;100.00
51781;BME280;37844;57.126;24.288;2022-11-20T00:38:42;101576.53;;;-3.14;100.00
51781;BME280;37844;57.126;24.288;2022-11-20T00:41:09;101583.88;;;-3.27;100.00
51781;BME280;37844;57.126;24.288;2022-11-20T00:43:35;101588.53;;;-3.32;100.00
51781;BME280;37844;57.126;24.288;2022-11-20T00:46:03;101580.69;;;-3.35;100.00
51781;BME280;37844;57.126;24.288;2022-11-20T00:48:29;101575.69;;;-3.25;100.00
51781;BME280;37844;57.126;24.288;2022-11-20T00:50:55;101576.16;;;-3.18;100.00
51781;BME280;37844;57.126;24.288;2022-11-20T00:53:21;101577.31;;;-3.15;100.00
51781;BME280;37844;57.126;24.288;2022-11-20T00:55:57;101579.19;;;-3.12;100.00
51781;BME280;37844;57.126;24.288;2022-11-20T00:58:23;101575.53;;;-3.16;100.00
51781;BME280;37844;57.126;24.288;2022-11-20T01:00:49;101567.47;;;-3.12;100.00
51781;BME280;37844;57.126;24.288;2022-11-20T01:03:16;101570.47;;;-3.16;100.00
51781;BME280;37844;57.126;24.288;2022-11-20T01:05:42;101555.75;;;-3.22;100.00
51781;BME280;37844;57.126;24.288;2022-11-20T01:08:08;101549.94;;;-3.21;100.00
51781;BME280;37844;57.126;24.288;2022-11-20T01:10:33;101557.50;;;-3.10;100.00
51781;BME280;37844;57.126;24.288;2022-11-20T01:12:59;101559.38;;;-3.08;100.00
51781;BME280;37844;57.126;24.288;2022-11-20T01:16:17;101551.47;;;-3.12;100.00
51781;BME280;37844;57.126;24.288;2022-11-20T01:18:45;101553.94;;;-3.02;100.00
51781;BME280;37844;57.126;24.288;2022-11-20T01:21:14;101547.53;;;-3.09;100.00
51781;BME280;37844;57.126;24.288;2022-11-20T01:23:42;101541.09;;;-3.05;100.00
51781;BME280;37844;57.126;24.288;2022-11-20T01:26:10;101544.75;;;-3.12;100.00
51781;BME280;37844;57.126;24.288;2022-11-20T01:28:37;101545.38;;;-3.04;100.00
51781;BME280;37844;57.126;24.288;2022-11-20T01:31:26;101538.19;;;-3.00;100.00
51781;BME280;37844;57.126;24.288;2022-11-20T01:33:54;101536.28;;;-3.02;100.00
51781;BME280;37844;57.126;24.288;2022-11-20T01:36:22;101539.81;;;-3.00;100.00
51781;BME280;37844;57.126;24.288;2022-11-20T01:38:47;101533.03;;;-3.01;100.00
51781;BME280;37844;57.126;24.288;2022-11-20T01:41:14;101522.69;;;-3.04;100.00
51781;BME280;37844;57.126;24.288;2022-11-20T01:44:01;101526.47;;;-3.09;100.00
51781;BME280;37844;57.126;24.288;2022-11-20T01:46:27;101516.75;;;-3.05;100.00
51781;BME280;37844;57.126;24.288;2022-11-20T01:51:43;101519.88;;;-2.97;100.00
51781;BME280;37844;57.126;24.288;2022-11-20T01:54:22;101506.91;;;-3.02;100.00
51781;BME280;37844;57.126;24.288;2022-11-20T01:56:51;101502.88;;;-3.00;100.00
51781;BME280;37844;57.126;24.288;2022-11-20T01:59:19;101500.59;;;-2.96;100.00
51781;BME280;37844;57.126;24.288;2022-11-20T02:01:46;101493.56;;;-3.01;100.00
51781;BME280;37844;57.126;24.288;2022-11-20T02:04:12;101493.78;;;-2.97;100.00
51781;BME280;37844;57.126;24.288;2022-11-20T02:06:48;101497.09;;;-2.99;100.00
51781;BME280;37844;57.126;24.288;2022-11-20T02:09:15;101507.03;;;-3.00;100.00
51781;BME280;37844;57.126;24.288;2022-11-20T02:11:41;101491.91;;;-3.00;100.00
51781;BME280;37844;57.126;24.288;2022-11-20T02:14:07;101497.44;;;-2.94;100.00
51781;BME280;37844;57.126;24.288;2022-11-20T02:16:53;101493.16;;;-2.95;100.00
51781;BME280;37844;57.126;24.288;2022-11-20T02:22:14;101494.78;;;-2.95;100.00
51781;BME280;37844;57.126;24.288;2022-11-20T02:24:41;101484.56;;;-2.97;100.00
51781;BME280;37844;57.126;24.288;2022-11-20T02:27:11;101487.22;;;-2.95;100.00
51781;BME280;37844;57.126;24.288;2022-11-20T02:32:26;101481.41;;;-2.94;100.00
51781;BME280;37844;57.126;24.288;2022-11-20T02:34:52;101480.53;;;-2.95;100.00
51781;BME280;37844;57.126;24.288;2022-11-20T02:37:18;101476.34;;;-2.84;100.00
51781;BME280;37844;57.126;24.288;2022-11-20T02:39:46;101477.34;;;-2.82;100.00
51781;BME280;37844;57.126;24.288;2022-11-20T02:42:12;101459.56;;;-2.84;100.00
51781;BME280;37844;57.126;24.288;2022-11-20T02:44:38;101473.19;;;-2.82;100.00
51781;BME280;37844;57.126;24.288;2022-11-20T02:47:03;101468.38;;;-2.79;100.00
51781;BME280;37844;57.126;24.288;2022-11-20T02:49:29;101470.00;;;-2.79;100.00
51781;BME280;37844;57.126;24.288;2022-11-20T02:51:54;101468.22;;;-2.80;100.00
51781;BME280;37844;57.126;24.288;2022-11-20T02:54:20;101467.00;;;-2.85;100.00
51781;BME280;37844;57.126;24.288;2022-11-20T02:56:45;101465.63;;;-2.82;100.00
51781;BME280;37844;57.126;24.288;2022-11-20T02:59:11;101461.66;;;-2.78;100.00
51781;BME280;37844;57.126;24.288;2022-11-20T03:01:36;101454.38;;;-2.75;100.00
51781;BME280;37844;57.126;24.288;2022-11-20T03:04:02;101460.50;;;-2.71;100.00
51781;BME280;37844;57.126;24.288;2022-11-20T03:06:27;101459.00;;;-2.69;100.00
51781;BME280;37844;57.126;24.288;2022-11-20T03:08:53;101451.66;;;-2.66;100.00
51781;BME280;37844;57.126;24.288;2022-11-20T03:11:19;101456.97;;;-2.73;100.00
51781;BME280;37844;57.126;24.288;2022-11-20T03:13:44;101454.28;;;-2.87;100.00
51781;BME280;37844;57.126;24.288;2022-11-20T03:16:13;101453.16;;;-2.90;100.00
51781;BME280;37844;57.126;24.288;2022-11-20T03:18:40;101449.34;;;-2.85;100.00
51781;BME280;37844;57.126;24.288;2022-11-20T03:21:06;101452.63;;;-2.86;100.00
51781;BME280;37844;57.126;24.288;2022-11-20T03:23:39;101446.88;;;-2.95;100.00
51781;BME280;37844;57.126;24.288;2022-11-20T03:26:15;101451.06;;;-3.06;100.00
51781;BME280;37844;57.126;24.288;2022-11-20T03:28:42;101447.19;;;-3.13;100.00
51781;BME280;37844;57.126;24.288;2022-11-20T03:31:13;101441.38;;;-3.12;100.00
51781;BME280;37844;57.126;24.288;2022-11-20T03:33:40;101445.91;;;-3.08;100.00
51781;BME280;37844;57.126;24.288;2022-11-20T03:36:07;101454.59;;;-3.04;100.00
51781;BME280;37844;57.126;24.288;2022-11-20T03:38:34;101450.09;;;-3.08;100.00
51781;BME280;37844;57.126;24.288;2022-11-20T03:41:08;101442.38;;;-3.10;100.00
51781;BME280;37844;57.126;24.288;2022-11-20T03:43:35;101430.78;;;-3.18;100.00
51781;BME280;37844;57.126;24.288;2022-11-20T03:46:00;101435.84;;;-3.18;100.00
51781;BME280;37844;57.126;24.288;2022-11-20T03:48:26;101437.13;;;-3.23;100.00
51781;BME280;37844;57.126;24.288;2022-11-20T03:50:53;101433.78;;;-3.34;100.00
51781;BME280;37844;57.126;24.288;2022-11-20T03:53:19;101434.41;;;-3.36;100.00
51781;BME280;37844;57.126;24.288;2022-11-20T03:55:45;101435.28;;;-3.36;100.00
51781;BME280;37844;57.126;24.288;2022-11-20T03:58:10;101429.59;;;-3.33;100.00
51781;BME280;37844;57.126;24.288;2022-11-20T04:00:36;101434.53;;;-3.45;100.00
51781;BME280;37844;57.126;24.288;2022-11-20T04:03:02;101437.06;;;-3.45;100.00
51781;BME280;37844;57.126;24.288;2022-11-20T04:05:28;101431.19;;;-3.56;100.00
51781;BME280;37844;57.126;24.288;2022-11-20T04:07:53;101430.53;;;-3.53;100.00
51781;BME280;37844;57.126;24.288;2022-11-20T04:10:19;101430.78;;;-3.50;100.00
51781;BME280;37844;57.126;24.288;2022-11-20T04:12:44;101437.47;;;-3.51;100.00
51781;BME280;37844;57.126;24.288;2022-11-20T04:15:10;101441.25;;;-3.56;100.00
51781;BME280;37844;57.126;24.288;2022-11-20T04:17:35;101435.31;;;-3.46;100.00
51781;BME280;37844;57.126;24.288;2022-11-20T04:20:01;101443.50;;;-3.49;100.00
51781;BME280;37844;57.126;24.288;2022-11-20T04:22:27;101431.88;;;-3.47;100.00
51781;BME280;37844;57.126;24.288;2022-11-20T04:24:53;101433.03;;;-3.43;100.00
51781;BME280;37844;57.126;24.288;2022-11-20T04:27:18;101435.31;;;-3.46;100.00
51781;BME280;37844;57.126;24.288;2022-11-20T04:29:43;101433.31;;;-3.50;100.00
51781;BME280;37844;57.126;24.288;2022-11-20T04:32:09;101437.06;;;-3.45;100.00
51781;BME280;37844;57.126;24.288;2022-11-20T04:34:34;101434.16;;;-3.50;100.00
51781;BME280;37844;57.126;24.288;2022-11-20T04:37:00;101437.09;;;-3.55;100.00
51781;BME280;37844;57.126;24.288;2022-11-20T04:39:26;101434.31;;;-3.58;100.00
51781;BME280;37844;57.126;24.288;2022-11-20T04:41:51;101438.47;;;-3.59;100.00
51781;BME280;37844;57.126;24.288;2022-11-20T04:44:36;101433.69;;;-3.56;100.00
51781;BME280;37844;57.126;24.288;2022-11-20T04:47:02;101437.84;;;-3.56;100.00
51781;BME280;37844;57.126;24.288;2022-11-20T04:49:27;101439.72;;;-3.54;100.00
51781;BME280;37844;57.126;24.288;2022-11-20T04:51:53;101430.78;;;-3.50;100.00
51781;BME280;37844;57.126;24.288;2022-11-20T04:54:18;101437.56;;;-3.49;100.00
51781;BME280;37844;57.126;24.288;2022-11-20T04:56:47;101426.84;;;-3.47;100.00
51781;BME280;37844;57.126;24.288;2022-11-20T04:59:13;101434.78;;;-3.42;100.00
51781;BME280;37844;57.126;24.288;2022-11-20T05:01:38;101439.44;;;-3.47;100.00
51781;BME280;37844;57.126;24.288;2022-11-20T05:04:04;101436.06;;;-3.47;100.00
51781;BME280;37844;57.126;24.288;2022-11-20T05:06:31;101441.47;;;-3.43;100.00
51781;BME280;37844;57.126;24.288;2022-11-20T05:08:57;101445.88;;;-3.40;100.00
51781;BME280;37844;57.126;24.288;2022-11-20T05:11:22;101448.28;;;-3.52;100.00
51781;BME280;37844;57.126;24.288;2022-11-20T05:13:49;101445.16;;;-3.59;100.00
51781;BME280;37844;57.126;24.288;2022-11-20T05:16:20;101440.00;;;-3.71;100.00
51781;BME280;37844;57.126;24.288;2022-11-20T05:18:46;101451.31;;;-3.66;100.00
51781;BME280;37844;57.126;24.288;2022-11-20T05:21:12;101444.41;;;-3.69;100.00
51781;BME280;37844;57.126;24.288;2022-11-20T05:23:39;101446.69;;;-3.72;100.00
51781;BME280;37844;57.126;24.288;2022-11-20T05:26:06;101450.09;;;-3.71;100.00
51781;BME280;37844;57.126;24.288;2022-11-20T05:28:33;101454.63;;;-3.67;100.00
51781;BME280;37844;57.126;24.288;2022-11-20T05:31:10;101450.84;;;-3.62;100.00
51781;BME280;37844;57.126;24.288;2022-11-20T05:33:36;101453.34;;;-3.62;100.00
51781;BME280;37844;57.126;24.288;2022-11-20T05:36:03;101456.38;;;-3.76;100.00
51781;BME280;37844;57.126;24.288;2022-11-20T05:38:28;101448.19;;;-3.74;100.00
51781;BME280;37844;57.126;24.288;2022-11-20T05:40:54;101459.91;;;-3.85;100.00
51781;BME280;37844;57.126;24.288;2022-11-20T05:43:19;101458.78;;;-3.78;100.00
51781;BME280;37844;57.126;24.288;2022-11-20T05:45:54;101461.28;;;-3.78;100.00
51781;BME280;37844;57.126;24.288;2022-11-20T05:48:20;101465.59;;;-3.77;100.00
51781;BME280;37844;57.126;24.288;2022-11-20T05:50:47;101465.84;;;-3.84;100.00
51781;BME280;37844;57.126;24.288;2022-11-20T05:53:12;101470.50;;;-3.89;100.00
51781;BME280;37844;57.126;24.288;2022-11-20T05:55:38;101471.38;;;-3.78;100.00
51781;BME280;37844;57.126;24.288;2022-11-20T05:58:03;101479.56;;;-3.91;100.00
51781;BME280;37844;57.126;24.288;2022-11-20T06:00:29;101471.50;;;-3.87;100.00
51781;BME280;37844;57.126;24.288;2022-11-20T06:02:54;101477.91;;;-3.90;100.00
51781;BME280;37844;57.126;24.288;2022-11-20T06:05:19;101481.34;;;-3.79;100.00
51781;BME280;37844;57.126;24.288;2022-11-20T06:07:45;101481.44;;;-3.78;100.00
51781;BME280;37844;57.126;24.288;2022-11-20T06:10:11;101494.03;;;-3.78;100.00
51781;BME280;37844;57.126;24.288;2022-11-20T06:12:36;101492.78;;;-3.83;100.00
51781;BME280;37844;57.126;24.288;2022-11-20T06:15:03;101489.13;;;-3.97;100.00
51781;BME280;37844;57.126;24.288;2022-11-20T06:17:29;101486.59;;;-3.97;100.00
51781;BME280;37844;57.126;24.288;2022-11-20T06:19:54;101490.00;;;-3.96;100.00
51781;BME280;37844;57.126;24.288;2022-11-20T06:22:20;101493.03;;;-4.00;100.00
51781;BME280;37844;57.126;24.288;2022-11-20T06:24:45;101490.13;;;-3.85;100.00
51781;BME280;37844;57.126;24.288;2022-11-20T06:27:10;101483.97;;;-3.78;100.00
51781;BME280;37844;57.126;24.288;2022-11-20T06:29:36;101484.22;;;-3.75;100.00
51781;BME280;37844;57.126;24.288;2022-11-20T06:32:01;101483.47;;;-3.74;100.00
51781;BME280;37844;57.126;24.288;2022-11-20T06:34:27;101491.28;;;-3.91;100.00
51781;BME280;37844;57.126;24.288;2022-11-20T06:36:52;101494.78;;;-3.89;100.00
51781;BME280;37844;57.126;24.288;2022-11-20T06:39:17;101501.22;;;-3.83;100.00
51781;BME280;37844;57.126;24.288;2022-11-20T06:41:43;101494.03;;;-3.88;100.00
51781;BME280;37844;57.126;24.288;2022-11-20T06:44:08;101500.19;;;-3.85;100.00
51781;BME280;37844;57.126;24.288;2022-11-20T06:46:34;101499.31;;;-3.85;100.00
51781;BME280;37844;57.126;24.288;2022-11-20T06:48:59;101490.75;;;-3.87;100.00
51781;BME280;37844;57.126;24.288;2022-11-20T06:51:25;101499.94;;;-3.88;100.00
51781;BME280;37844;57.126;24.288;2022-11-20T06:53:50;101496.94;;;-3.94;100.00
51781;BME280;37844;57.126;24.288;2022-11-20T06:56:16;101499.81;;;-3.89;100.00
51781;BME280;37844;57.126;24.288;2022-11-20T06:58:41;101505.75;;;-3.78;100.00
51781;BME280;37844;57.126;24.288;2022-11-20T07:01:12;101509.41;;;-3.85;100.00
51781;BME280;37844;57.126;24.288;2022-11-20T07:03:38;101496.16;;;-3.83;100.00
51781;BME280;37844;57.126;24.288;2022-11-20T07:06:04;101495.91;;;-3.75;100.00
51781;BME280;37844;57.126;24.288;2022-11-20T07:08:30;101482.81;;;-3.71;100.00
51781;BME280;37844;57.126;24.288;2022-11-20T07:11:00;101493.28;;;-3.77;100.00
51781;BME280;37844;57.126;24.288;2022-11-20T07:13:26;101495.28;;;-3.73;100.00
51781;BME280;37844;57.126;24.288;2022-11-20T07:15:51;101494.66;;;-3.70;100.00
51781;BME280;37844;57.126;24.288;2022-11-20T07:18:17;101503.13;;;-3.70;100.00
51781;BME280;37844;57.126;24.288;2022-11-20T07:20:42;101510.41;;;-3.73;100.00
51781;BME280;37844;57.126;24.288;2022-11-20T07:23:08;101496.91;;;-3.63;100.00
51781;BME280;37844;57.126;24.288;2022-11-20T07:25:33;101492.50;;;-3.45;100.00
51781;BME280;37844;57.126;24.288;2022-11-20T07:28:00;101489.56;;;-3.19;100.00
51781;BME280;37844;57.126;24.288;2022-11-20T07:30:29;101493.91;;;-2.96;100.00
51781;BME280;37844;57.126;24.288;2022-11-20T07:32:56;101498.34;;;-2.71;100.00
51781;BME280;37844;57.126;24.288;2022-11-20T07:35:22;101488.06;;;-2.52;100.00
51781;BME280;37844;57.126;24.288;2022-11-20T07:37:48;101489.97;;;-1.94;100.00
51781;BME280;37844;57.126;24.288;2022-11-20T07:40:14;101497.31;;;-1.63;100.00
51781;BME280;37844;57.126;24.288;2022-11-20T07:42:53;101484.06;;;-1.25;100.00
51781;BME280;37844;57.126;24.288;2022-11-20T07:45:19;101494.19;;;-1.14;100.00
51781;BME280;37844;57.126;24.288;2022-11-20T07:47:45;101485.66;;;-0.79;100.00
51781;BME280;37844;57.126;24.288;2022-11-20T07:50:11;101493.94;;;-0.33;100.00
51781;BME280;37844;57.126;24.288;2022-11-20T07:52:37;101497.50;;;-0.17;100.00
51781;BME280;37844;57.126;24.288;2022-11-20T07:55:03;101500.56;;;-0.35;100.00
51781;BME280;37844;57.126;24.288;2022-11-20T07:57:28;101493.84;;;0.16;100.00
51781;BME280;37844;57.126;24.288;2022-11-20T07:59:54;101493.16;;;0.44;100.00
51781;BME280;37844;57.126;24.288;2022-11-20T08:02:19;101486.44;;;0.57;100.00
51781;BME280;37844;57.126;24.288;2022-11-20T08:04:44;101489.97;;;0.99;100.00
51781;BME280;37844;57.126;24.288;2022-11-20T08:07:10;101484.47;;;1.06;100.00
51781;BME280;37844;57.126;24.288;2022-11-20T08:09:35;101483.09;;;1.38;100.00
51781;BME280;37844;57.126;24.288;2022-11-20T08:12:01;101482.75;;;1.60;100.00
51781;BME280;37844;57.126;24.288;2022-11-20T08:15:02;101486.91;;;1.45;100.00
51781;BME280;37844;57.126;24.288;2022-11-20T08:17:27;101493.16;;;1.37;100.00
51781;BME280;37844;57.126;24.288;2022-11-20T08:19:53;101485.56;;;0.97;100.00
51781;BME280;37844;57.126;24.288;2022-11-20T08:22:18;101491.63;;;0.86;100.00
51781;BME280;37844;57.126;24.288;2022-11-20T08:24:43;101492.41;;;0.98;100.00
51781;BME280;37844;57.126;24.288;2022-11-20T08:27:09;101491.91;;;0.90;100.00
51781;BME280;37844;57.126;24.288;2022-11-20T08:29:34;101499.44;;;0.89;100.00
51781;BME280;37844;57.126;24.288;2022-11-20T08:32:00;101497.75;;;0.62;100.00
51781;BME280;37844;57.126;24.288;2022-11-20T08:34:25;101491.72;;;1.00;100.00
51781;BME280;37844;57.126;24.288;2022-11-20T08:36:51;101497.88;;;1.17;100.00
51781;BME280;37844;57.126;24.288;2022-11-20T08:39:16;101495.41;;;1.32;100.00
51781;BME280;37844;57.126;24.288;2022-11-20T08:41:42;101495.56;;;1.62;100.00
51781;BME280;37844;57.126;24.288;2022-11-20T08:44:07;101497.44;;;1.79;98.59
51781;BME280;37844;57.126;24.288;2022-11-20T08:46:41;101503.84;;;2.16;97.31
51781;BME280;37844;57.126;24.288;2022-11-20T08:49:10;101491.06;;;2.29;95.66
51781;BME280;37844;57.126;24.288;2022-11-20T08:51:36;101502.28;;;2.32;96.15
51781;BME280;37844;57.126;24.288;2022-11-20T08:54:02;101490.72;;;2.38;93.72
51781;BME280;37844;57.126;24.288;2022-11-20T08:56:28;101496.13;;;2.14;93.51
51781;BME280;37844;57.126;24.288;2022-11-20T08:58:53;101488.06;;;1.50;91.26
51781;BME280;37844;57.126;24.288;2022-11-20T09:01:20;101487.03;;;0.67;92.42
51781;BME280;37844;57.126;24.288;2022-11-20T09:03:45;101485.72;;;0.08;93.87
51781;BME280;37844;57.126;24.288;2022-11-20T09:06:11;101478.00;;;0.07;95.27
51781;BME280;37844;57.126;24.288;2022-11-20T09:08:37;101484.56;;;0.16;95.46
51781;BME280;37844;57.126;24.288;2022-11-20T09:11:03;101477.69;;;0.27;96.27
51781;BME280;37844;57.126;24.288;2022-11-20T09:13:29;101482.34;;;0.59;95.28
51781;BME280;37844;57.126;24.288;2022-11-20T09:16:00;101474.44;;;0.95;94.67
51781;BME280;37844;57.126;24.288;2022-11-20T09:18:26;101474.13;;;0.63;92.25
51781;BME280;37844;57.126;24.288;2022-11-20T09:20:56;101473.91;;;0.47;93.40
51781;BME280;37844;57.126;24.288;2022-11-20T09:23:22;101476.31;;;0.84;92.69
51781;BME280;37844;57.126;24.288;2022-11-20T09:25:48;101475.69;;;0.61;91.63
51781;BME280;37844;57.126;24.288;2022-11-20T09:28:13;101486.78;;;0.37;93.05
51781;BME280;37844;57.126;24.288;2022-11-20T09:30:39;101482.91;;;0.69;92.73
51781;BME280;37844;57.126;24.288;2022-11-20T09:33:05;101468.97;;;0.62;91.25
51781;BME280;37844;57.126;24.288;2022-11-20T09:35:31;101478.75;;;0.31;90.25
51781;BME280;37844;57.126;24.288;2022-11-20T09:37:57;101474.47;;;-0.09;90.95
51781;BME280;37844;57.126;24.288;2022-11-20T09:40:25;101462.44;;;0.14;91.78
51781;BME280;37844;57.126;24.288;2022-11-20T09:42:57;101472.22;;;0.21;90.94
51781;BME280;37844;57.126;24.288;2022-11-20T09:56:50;101474.16;;;-0.50;90.61
51781;BME280;37844;57.126;24.288;2022-11-20T09:59:41;101488.09;;;-0.80;91.69
51781;BME280;37844;57.126;24.288;2022-11-20T10:02:29;101472.81;;;-0.82;92.34
51781;BME280;37844;57.126;24.288;2022-11-20T10:10:04;101478.88;;;-1.27;95.72
51781;BME280;37844;57.126;24.288;2022-11-20T10:15:33;101467.09;;;-1.15;96.22
51781;BME280;37844;57.126;24.288;2022-11-20T10:20:30;101492.38;;;-1.38;97.34
51781;BME280;37844;57.126;24.288;2022-11-20T10:23:16;101471.16;;;-1.40;98.25
51781;BME280;37844;57.126;24.288;2022-11-20T10:31:14;101462.38;;;-1.45;98.62
51781;BME280;37844;57.126;24.288;2022-11-20T10:33:44;101458.66;;;-1.27;98.87
51781;BME280;37844;57.126;24.288;2022-11-20T10:36:22;101466.03;;;-1.30;98.58
51781;BME280;37844;57.126;24.288;2022-11-20T10:38:58;101470.75;;;-1.35;97.29
51781;BME280;37844;57.126;24.288;2022-11-20T10:41:40;101471.25;;;-1.62;97.79
51781;BME280;37844;57.126;24.288;2022-11-20T10:44:20;101451.66;;;-1.77;98.70
51781;BME280;37844;57.126;24.288;2022-11-20T10:47:05;101465.84;;;-1.67;98.88
51781;BME280;37844;57.126;24.288;2022-11-20T10:49:36;101461.56;;;-1.80;98.37
51781;BME280;37844;57.126;24.288;2022-11-20T10:55:23;101478.91;;;-2.18;99.68
51781;BME280;37844;57.126;24.288;2022-11-20T10:58:25;101462.94;;;-2.29;100.00
51781;BME280;37844;57.126;24.288;2022-11-20T11:01:14;101470.88;;;-2.46;100.00
51781;BME280;37844;57.126;24.288;2022-11-20T11:03:41;101469.63;;;-2.51;100.00
51781;BME280;37844;57.126;24.288;2022-11-20T11:06:16;101463.59;;;-2.53;100.00
51781;BME280;37844;57.126;24.288;2022-11-20T11:08:44;101465.16;;;-2.44;100.00
51781;BME280;37844;57.126;24.288;2022-11-20T11:11:29;101459.25;;;-2.44;100.00
51781;BME280;37844;57.126;24.288;2022-11-20T11:14:24;101460.81;;;-2.35;100.00
51781;BME280;37844;57.126;24.288;2022-11-20T11:16:50;101463.16;;;-2.26;100.00
51781;BME280;37844;57.126;24.288;2022-11-20T11:19:16;101458.56;;;-2.20;100.00
51781;BME280;37844;57.126;24.288;2022-11-20T11:21:49;101475.38;;;-2.20;100.00
51781;BME280;37844;57.126;24.288;2022-11-20T11:24:24;101469.50;;;-2.31;100.00
51781;BME280;37844;57.126;24.288;2022-11-20T11:27:01;101465.31;;;-2.30;100.00
51781;BME280;37844;57.126;24.288;2022-11-20T11:29:32;101466.63;;;-2.36;100.00
51781;BME280;37844;57.126;24.288;2022-11-20T11:32:17;101462.59;;;-2.56;100.00
51781;BME280;37844;57.126;24.288;2022-11-20T11:34:43;101470.25;;;-2.54;100.00
51781;BME280;37844;57.126;24.288;2022-11-20T11:37:18;101467.34;;;-2.48;100.00
51781;BME280;37844;57.126;24.288;2022-11-20T11:39:46;101458.69;;;-2.62;100.00
51781;BME280;37844;57.126;24.288;2022-11-20T11:42:17;101458.84;;;-2.61;100.00
51781;BME280;37844;57.126;24.288;2022-11-20T11:44:45;101454.81;;;-2.69;100.00
51781;BME280;37844;57.126;24.288;2022-11-20T11:55:05;101459.88;;;-2.69;100.00
51781;BME280;37844;57.126;24.288;2022-11-20T12:00:21;101454.06;;;-2.68;100.00
51781;BME280;37844;57.126;24.288;2022-11-20T12:02:51;101449.41;;;-2.73;100.00
51781;BME280;37844;57.126;24.288;2022-11-20T12:05:38;101453.38;;;-2.87;100.00
51781;BME280;37844;57.126;24.288;2022-11-20T12:08:12;101452.16;;;-2.92;100.00
51781;BME280;37844;57.126;24.288;2022-11-20T12:10:56;101447.28;;;-3.01;100.00
51781;BME280;37844;57.126;24.288;2022-11-20T12:13:48;101464.66;;;-3.04;100.00
51781;BME280;37844;57.126;24.288;2022-11-20T12:16:19;101445.41;;;-3.14;100.00
51781;BME280;37844;57.126;24.288;2022-11-20T12:18:47;101446.63;;;-2.99;100.00
51781;BME280;37844;57.126;24.288;2022-11-20T12:24:04;101458.25;;;-3.01;100.00
51781;BME280;37844;57.126;24.288;2022-11-20T12:43:21;101463.94;;;-3.56;100.00
51781;BME280;37844;57.126;24.288;2022-11-20T12:46:23;101469.84;;;-3.55;100.00
51781;BME280;37844;57.126;24.288;2022-11-20T12:52:49;101465.31;;;-3.59;100.00
51781;BME280;37844;57.126;24.288;2022-11-20T12:57:55;101465.19;;;-3.51;100.00
51781;BME280;37844;57.126;24.288;2022-11-20T13:00:23;101462.50;;;-3.42;100.00
51781;BME280;37844;57.126;24.288;2022-11-20T13:08:38;101464.91;;;-3.54;100.00
51781;BME280;37844;57.126;24.288;2022-11-20T13:11:34;101473.25;;;-3.55;100.00
51781;BME280;37844;57.126;24.288;2022-11-20T13:17:42;101460.66;;;-3.55;100.00
51781;BME280;37844;57.126;24.288;2022-11-20T13:20:13;101492.28;;;-3.69;100.00
51781;BME280;37844;57.126;24.288;2022-11-20T13:25:29;101465.22;;;-3.81;100.00
51781;BME280;37844;57.126;24.288;2022-11-20T13:27:57;101463.56;;;-3.71;100.00
51781;BME280;37844;57.126;24.288;2022-11-20T13:30:28;101469.22;;;-3.84;100.00
51781;BME280;37844;57.126;24.288;2022-11-20T13:32:58;101461.44;;;-3.87;100.00
51781;BME280;37844;57.126;24.288;2022-11-20T13:35:32;101467.47;;;-3.95;100.00
51781;BME280;37844;57.126;24.288;2022-11-20T13:38:08;101466.34;;;-3.98;100.00
51781;BME280;37844;57.126;24.288;2022-11-20T13:40:37;101470.09;;;-4.03;100.00
51781;BME280;37844;57.126;24.288;2022-11-20T13:43:18;101465.81;;;-4.05;100.00
51781;BME280;37844;57.126;24.288;2022-11-20T13:46:04;101467.09;;;-4.20;100.00
51781;BME280;37844;57.126;24.288;2022-11-20T13:48:49;101463.94;;;-4.17;100.00
51781;BME280;37844;57.126;24.288;2022-11-20T14:02:12;101450.69;;;-4.45;100.00
51781;BME280;37844;57.126;24.288;2022-11-20T14:04:42;101470.41;;;-4.50;100.00
51781;BME280;37844;57.126;24.288;2022-11-20T14:07:08;101452.91;;;-4.49;100.00
51781;BME280;37844;57.126;24.288;2022-11-20T14:09:34;101473.66;;;-4.51;100.00
51781;BME280;37844;57.126;24.288;2022-11-20T14:12:01;101476.41;;;-4.58;100.00
51781;BME280;37844;57.126;24.288;2022-11-20T14:14:29;101477.44;;;-4.56;100.00
51781;BME280;37844;57.126;24.288;2022-11-20T14:17:06;101468.88;;;-4.58;100.00
51781;BME280;37844;57.126;24.288;2022-11-20T14:19:32;101464.75;;;-4.58;100.00
51781;BME280;37844;57.126;24.288;2022-11-20T14:22:26;101472.31;;;-4.48;100.00